createdAt,value
2017-01-05T00:00:14.371Z,1.44
2017-01-05T00:01:14.426Z,1.32
2017-01-05T00:02:14.353Z,1.35
2017-01-05T00:03:14.365Z,1.35
2017-01-05T00:04:14.442Z,1.32
2017-01-05T00:05:14.471Z,1.32
2017-01-05T00:06:14.392Z,1.42
2017-01-05T00:07:14.481Z,1.21
2017-01-05T00:08:14.351Z,1.24
2017-01-05T00:09:14.462Z,1.24
2017-01-05T00:10:14.394Z,1.36
2017-01-05T00:11:14.458Z,1.32
2017-01-05T00:12:14.448Z,1.42
2017-01-05T00:13:14.419Z,1.35
2017-01-05T00:14:14.362Z,1.43
2017-01-05T00:15:14.491Z,1.38
2017-01-05T00:16:14.384Z,1.38
2017-01-05T00:17:14.616Z,1.34
2017-01-05T00:18:14.383Z,1.44
2017-01-05T00:19:14.503Z,1.36
2017-01-05T00:20:14.371Z,1.42
2017-01-05T00:21:14.464Z,1.44
2017-01-05T00:22:14.900Z,1.38
2017-01-05T00:23:14.431Z,1.38
2017-01-05T00:24:14.945Z,1.42
2017-01-05T00:25:14.417Z,1.43
2017-01-05T00:26:14.497Z,1.36
2017-01-05T00:27:14.419Z,1.36
2017-01-05T00:28:14.417Z,1.43
2017-01-05T00:29:14.631Z,1.34
2017-01-05T00:30:14.412Z,1.38
2017-01-05T00:31:14.533Z,1.42
2017-01-05T00:32:14.395Z,1.46
2017-01-05T00:33:14.599Z,1.36
2017-01-05T00:34:14.369Z,1.42
2017-01-05T00:35:14.571Z,1.42
2017-01-05T00:36:14.476Z,1.42
2017-01-05T00:37:14.417Z,1.35
2017-01-05T00:38:14.400Z,1.42
2017-01-05T00:39:14.452Z,1.38
2017-01-05T00:40:14.419Z,1.42
2017-01-05T00:41:14.468Z,1.35
2017-01-05T00:42:14.419Z,1.32
2017-01-05T00:43:14.437Z,1.39
2017-01-05T00:44:14.408Z,1.32
2017-01-05T00:45:14.405Z,1.36
2017-01-05T00:46:14.446Z,1.29
2017-01-05T00:47:14.470Z,1.24
2017-01-05T00:48:14.377Z,1.24
2017-01-05T00:49:14.608Z,1.24
2017-01-05T00:50:14.433Z,1.25
2017-01-05T00:51:14.517Z,1.28
2017-01-05T00:52:14.418Z,1.24
2017-01-05T00:53:14.515Z,1.26
2017-01-05T00:54:14.414Z,1.2
2017-01-05T00:55:14.526Z,1.26
2017-01-05T00:56:14.500Z,1.2
2017-01-05T00:57:14.559Z,1.18
2017-01-05T00:58:14.393Z,1.14
2017-01-05T00:59:14.546Z,1.13
2017-01-05T01:00:14.430Z,1.08
2017-01-05T01:01:14.437Z,1.2
2017-01-05T01:02:14.406Z,1.2
2017-01-05T01:03:14.556Z,1.13
2017-01-05T01:04:14.387Z,1.08
2017-01-05T01:05:14.581Z,1.2
2017-01-05T01:06:14.436Z,1.1
2017-01-05T01:07:14.416Z,1.1
2017-01-05T01:08:14.405Z,0.92
2017-01-05T01:09:15.943Z,1.08
2017-01-05T01:10:14.515Z,1.02
2017-01-05T01:11:14.452Z,1.04
2017-01-05T01:12:14.449Z,1.06
2017-01-05T01:13:14.556Z,0.98
2017-01-05T01:14:14.436Z,0.93
2017-01-05T01:15:15.081Z,1.08
2017-01-05T01:16:14.425Z,1.1
2017-01-05T01:17:14.562Z,1.06
2017-01-05T01:18:14.599Z,1
2017-01-05T01:19:14.663Z,1.07
2017-01-05T01:20:14.560Z,1.14
2017-01-05T01:21:14.507Z,1.06
2017-01-05T01:22:14.471Z,1.08
2017-01-05T01:23:14.502Z,1
2017-01-05T01:24:14.454Z,1.1
2017-01-05T01:25:14.564Z,1.13
2017-01-05T01:26:14.460Z,0.99
2017-01-05T01:27:14.585Z,1.04
2017-01-05T01:28:14.476Z,1.13
2017-01-05T01:29:14.581Z,1.08
2017-01-05T01:30:14.479Z,1.11
2017-01-05T01:31:14.558Z,1.16
2017-01-05T01:32:15.138Z,1.21
2017-01-05T01:33:14.545Z,1.2
2017-01-05T01:34:14.464Z,1.21
2017-01-05T01:35:14.459Z,1.18
2017-01-05T01:36:14.419Z,1.08
2017-01-05T01:37:14.652Z,1.04
2017-01-05T01:38:14.431Z,1.18
2017-01-05T01:39:14.504Z,1.17
2017-01-05T01:40:14.460Z,1.07
2017-01-05T01:41:14.535Z,1.21
2017-01-05T01:42:14.518Z,1.14
2017-01-05T01:43:14.582Z,1.1
2017-01-05T01:44:14.491Z,1.14
2017-01-05T01:45:14.500Z,1.11
2017-01-05T01:46:14.474Z,1.1
2017-01-05T01:47:14.489Z,1.08
2017-01-05T01:48:14.446Z,1.08
2017-01-05T01:49:14.550Z,1.08
2017-01-05T01:50:14.450Z,1.07
2017-01-05T01:51:14.476Z,1.16
2017-01-05T01:52:14.525Z,1.11
2017-01-05T01:53:14.438Z,1.04
2017-01-05T01:54:14.539Z,1.1
2017-01-05T01:55:14.601Z,1.08
2017-01-05T01:56:14.586Z,1.04
2017-01-05T01:57:14.509Z,1.02
2017-01-05T01:58:14.470Z,1.08
2017-01-05T01:59:14.518Z,1.08
2017-01-05T02:00:14.510Z,1.14
2017-01-05T02:01:14.597Z,1.08
2017-01-05T02:02:14.480Z,1.02
2017-01-05T02:03:14.568Z,1.06
2017-01-05T02:04:14.478Z,0.95
2017-01-05T02:05:14.521Z,0.99
2017-01-05T02:06:14.520Z,0.99
2017-01-05T02:07:14.749Z,1
2017-01-05T02:08:14.456Z,1.14
2017-01-05T02:09:14.471Z,1.1
2017-01-05T02:10:14.496Z,1.16
2017-01-05T02:11:14.475Z,1.11
2017-01-05T02:12:14.538Z,1.06
2017-01-05T02:13:14.472Z,1
2017-01-05T02:14:14.578Z,0.96
2017-01-05T02:15:14.507Z,1.06
2017-01-05T02:16:14.490Z,1.1
2017-01-05T02:17:14.547Z,1.07
2017-01-05T02:18:14.519Z,1.14
2017-01-05T02:19:14.601Z,1.08
2017-01-05T02:20:14.491Z,1.11
2017-01-05T02:21:14.604Z,1.1
2017-01-05T02:22:14.565Z,1.14
2017-01-05T02:23:14.511Z,1.07
2017-01-05T02:24:14.518Z,1.2
2017-01-05T02:25:14.585Z,1.07
2017-01-05T02:26:14.548Z,1.16
2017-01-05T02:27:14.566Z,1.18
2017-01-05T02:28:14.478Z,1.08
2017-01-05T02:29:14.528Z,1.21
2017-01-05T02:30:14.485Z,1.24
2017-01-05T02:31:14.502Z,1.2
2017-01-05T02:32:14.529Z,1.21
2017-01-05T02:33:14.515Z,1.26
2017-01-05T02:34:14.490Z,1.2
2017-01-05T02:35:14.697Z,1.28
2017-01-05T02:36:14.496Z,1.25
2017-01-05T02:37:14.532Z,1.31
2017-01-05T02:38:14.469Z,1.21
2017-01-05T02:39:15.124Z,1.29
2017-01-05T02:40:14.503Z,1.24
2017-01-05T02:41:14.559Z,1.29
2017-01-05T02:42:14.556Z,1.14
2017-01-05T02:43:14.540Z,1.29
2017-01-05T02:44:15.216Z,1.29
2017-01-05T02:45:14.518Z,1.28
2017-01-05T02:46:14.495Z,1.31
2017-01-05T02:47:14.568Z,1.17
2017-01-05T02:48:14.517Z,1.25
2017-01-05T02:49:14.575Z,1.2
2017-01-05T02:50:14.477Z,1.26
2017-01-05T02:51:14.583Z,1.25
2017-01-05T02:52:14.485Z,1.28
2017-01-05T02:53:14.616Z,1.26
2017-01-05T02:54:14.506Z,1.24
2017-01-05T02:55:14.512Z,1.24
2017-01-05T02:56:14.537Z,1.24
2017-01-05T02:57:14.616Z,1.31
2017-01-05T02:58:14.626Z,1.32
2017-01-05T02:59:14.649Z,1.24
2017-01-05T03:00:14.568Z,1.31
2017-01-05T03:01:14.643Z,1.25
2017-01-05T03:02:14.509Z,1.25
2017-01-05T03:03:14.556Z,1.32
2017-01-05T03:04:14.537Z,1.31
2017-01-05T03:05:14.522Z,1.43
2017-01-05T03:06:14.500Z,1.39
2017-01-05T03:07:14.682Z,1.47
2017-01-05T03:08:14.513Z,1.44
2017-01-05T03:09:14.572Z,1.39
2017-01-05T03:10:14.558Z,1.47
2017-01-05T03:11:14.603Z,1.52
2017-01-05T03:12:14.572Z,1.56
2017-01-05T03:13:14.620Z,1.54
2017-01-05T03:14:14.515Z,1.49
2017-01-05T03:15:14.612Z,1.49
2017-01-05T03:16:14.509Z,1.52
2017-01-05T03:17:14.625Z,1.52
2017-01-05T03:18:14.552Z,1.63
2017-01-05T03:19:14.645Z,1.74
2017-01-05T03:20:14.588Z,1.75
2017-01-05T03:21:14.545Z,1.71
2017-01-05T03:22:14.567Z,1.67
2017-01-05T03:23:14.589Z,1.68
2017-01-05T03:24:14.615Z,1.79
2017-01-05T03:25:14.544Z,1.71
2017-01-05T03:26:14.469Z,1.79
2017-01-05T03:27:14.599Z,1.83
2017-01-05T03:28:14.584Z,1.86
2017-01-05T03:29:14.679Z,1.81
2017-01-05T03:30:14.585Z,1.83
2017-01-05T03:31:14.647Z,1.85
2017-01-05T03:32:14.730Z,1.79
2017-01-05T03:33:14.726Z,1.95
2017-01-05T03:34:14.615Z,1.93
2017-01-05T03:35:15.249Z,2
2017-01-05T03:36:14.552Z,1.9
2017-01-05T03:37:14.573Z,1.89
2017-01-05T03:38:14.563Z,1.9
2017-01-05T03:39:14.817Z,1.98
2017-01-05T03:40:14.538Z,2.02
2017-01-05T03:41:14.583Z,2
2017-01-05T03:42:14.629Z,1.92
2017-01-05T03:43:14.766Z,1.92
2017-01-05T03:44:14.585Z,1.93
2017-01-05T03:45:14.686Z,2.02
2017-01-05T03:46:14.554Z,2.08
2017-01-05T03:47:14.628Z,2.05
2017-01-05T03:48:14.576Z,2.12
2017-01-05T03:49:14.763Z,2.07
2017-01-05T03:50:15.222Z,2.04
2017-01-05T03:51:14.643Z,2.01
2017-01-05T03:52:14.592Z,2.07
2017-01-05T03:53:14.726Z,2.05
2017-01-05T03:57:43.679Z,2.12
2017-01-05T03:58:43.591Z,2.08
2017-01-05T03:59:43.581Z,2.14
2017-01-05T04:00:43.572Z,2.18
2017-01-05T04:01:44.791Z,2.15
2017-01-05T04:02:43.733Z,2.19
2017-01-05T04:03:43.572Z,2.22
2017-01-05T04:04:43.577Z,2.19
2017-01-05T04:05:43.650Z,2.15
2017-01-05T04:06:43.603Z,2.23
2017-01-05T04:07:43.623Z,2.15
2017-01-05T04:08:43.592Z,2.12
2017-01-05T04:09:44.328Z,2.04
2017-01-05T04:10:43.552Z,2.08
2017-01-05T04:11:43.681Z,2.07
2017-01-05T04:12:43.673Z,2.05
2017-01-05T04:13:43.632Z,2.05
2017-01-05T04:14:43.709Z,2.07
2017-01-05T04:15:43.744Z,2.02
2017-01-05T04:16:43.661Z,1.9
2017-01-05T04:17:43.671Z,2.01
2017-01-05T04:18:43.696Z,2
2017-01-05T04:19:43.591Z,1.92
2017-01-05T04:20:43.649Z,1.9
2017-01-05T04:21:44.944Z,1.85
2017-01-05T04:22:43.585Z,1.92
2017-01-05T04:23:43.686Z,1.82
2017-01-05T04:24:43.687Z,1.83
2017-01-05T04:25:43.614Z,1.86
2017-01-05T04:26:43.607Z,1.79
2017-01-05T04:27:43.671Z,1.85
2017-01-05T04:28:43.812Z,1.67
2017-01-05T04:29:43.683Z,1.74
2017-01-05T04:30:44.202Z,1.67
2017-01-05T04:31:43.810Z,1.57
2017-01-05T04:32:43.693Z,1.68
2017-01-05T04:33:43.720Z,1.56
2017-01-05T04:34:44.909Z,1.67
2017-01-05T04:35:43.561Z,1.61
2017-01-05T04:36:43.604Z,1.56
2017-01-05T04:37:43.769Z,1.52
2017-01-05T04:38:43.611Z,1.47
2017-01-05T04:39:43.590Z,1.53
2017-01-05T04:40:43.641Z,1.49
2017-01-05T04:41:43.708Z,1.49
2017-01-05T04:42:43.681Z,1.38
2017-01-05T04:43:43.757Z,1.5
2017-01-05T04:44:43.610Z,1.39
2017-01-05T04:45:43.801Z,1.47
2017-01-05T04:46:43.718Z,1.5
2017-01-05T04:47:43.879Z,1.36
2017-01-05T04:48:43.780Z,1.42
2017-01-05T04:49:43.730Z,1.35
2017-01-05T04:50:43.739Z,1.42
2017-01-05T04:51:43.658Z,1.39
2017-01-05T04:52:43.712Z,1.42
2017-01-05T04:53:43.619Z,1.26
2017-01-05T04:54:43.630Z,1.25
2017-01-05T04:55:43.730Z,1.21
2017-01-05T04:56:43.691Z,1.21
2017-01-05T04:57:43.938Z,1.34
2017-01-05T04:58:43.713Z,1.24
2017-01-05T04:59:43.616Z,1.26
2017-01-05T05:00:43.708Z,1.24
2017-01-05T05:01:43.724Z,1.21
2017-01-05T05:02:43.714Z,1.2
2017-01-05T05:03:43.829Z,1.18
2017-01-05T05:04:43.812Z,1.17
2017-01-05T05:05:43.729Z,1.1
2017-01-05T05:06:43.695Z,1.08
2017-01-05T05:07:43.650Z,1.2
2017-01-05T05:08:43.759Z,1.1
2017-01-05T05:09:43.668Z,1.04
2017-01-05T05:10:43.788Z,1.13
2017-01-05T05:11:43.825Z,1.04
2017-01-05T05:12:43.717Z,1.07
2017-01-05T05:13:43.739Z,1.1
2017-01-05T05:14:43.769Z,1.08
2017-01-05T05:15:43.781Z,0.92
2017-01-05T05:16:44.301Z,1
2017-01-05T05:17:43.758Z,1.06
2017-01-05T05:18:43.648Z,0.96
2017-01-05T05:19:43.810Z,0.96
2017-01-05T05:20:43.738Z,0.99
2017-01-05T05:21:43.655Z,0.98
2017-01-05T05:22:43.684Z,0.96
2017-01-05T05:23:43.638Z,0.93
2017-01-05T05:24:43.781Z,0.93
2017-01-05T05:25:43.717Z,0.92
2017-01-05T05:26:43.746Z,0.89
2017-01-05T05:27:43.693Z,0.9
2017-01-05T05:28:43.688Z,0.86
2017-01-05T05:29:43.807Z,0.95
2017-01-05T05:30:43.629Z,0.92
2017-01-05T05:31:43.824Z,0.8
2017-01-05T05:32:43.758Z,0.9
2017-01-05T05:33:43.740Z,0.92
2017-01-05T05:34:43.807Z,0.78
2017-01-05T05:35:43.677Z,0.88
2017-01-05T05:36:43.836Z,0.88
2017-01-05T05:37:43.689Z,0.93
2017-01-05T05:38:43.746Z,0.88
2017-01-05T05:39:44.338Z,0.9
2017-01-05T05:40:43.807Z,0.93
2017-01-05T05:41:43.822Z,0.98
2017-01-05T05:42:43.759Z,0.9
2017-01-05T05:43:43.823Z,0.98
2017-01-05T05:44:43.824Z,0.93
2017-01-05T05:45:43.736Z,0.89
2017-01-05T05:46:43.775Z,0.89
2017-01-05T05:47:43.717Z,0.86
2017-01-05T05:48:43.730Z,0.82
2017-01-05T05:49:43.746Z,0.99
2017-01-05T05:50:43.817Z,0.81
2017-01-05T05:51:43.776Z,0.86
2017-01-05T05:52:45.165Z,0.81
2017-01-05T05:53:43.731Z,0.88
2017-01-05T05:54:43.774Z,0.92
2017-01-05T05:55:43.835Z,0.93
2017-01-05T05:56:43.856Z,0.82
2017-01-05T05:57:43.815Z,0.78
2017-01-05T05:58:43.715Z,0.78
2017-01-05T05:59:43.764Z,0.75
2017-01-05T06:00:43.702Z,0.71
2017-01-05T06:01:43.875Z,0.67
2017-01-05T06:02:43.876Z,0.67
2017-01-05T06:03:43.695Z,0.72
2017-01-05T06:04:43.746Z,0.68
2017-01-05T06:05:43.711Z,0.82
2017-01-05T06:06:43.825Z,0.78
2017-01-05T06:07:43.786Z,0.81
2017-01-05T06:08:43.786Z,0.81
2017-01-05T06:09:43.816Z,0.77
2017-01-05T06:10:43.830Z,0.7
2017-01-05T06:11:43.687Z,0.75
2017-01-05T06:12:43.824Z,0.64
2017-01-05T06:13:43.732Z,0.74
2017-01-05T06:14:43.752Z,0.62
2017-01-05T06:15:43.717Z,0.62
2017-01-05T06:16:43.702Z,0.74
2017-01-05T06:17:43.764Z,0.68
2017-01-05T06:18:43.765Z,0.57
2017-01-05T06:19:43.777Z,0.53
2017-01-05T06:20:43.740Z,0.53
2017-01-05T06:21:43.820Z,0.62
2017-01-05T06:22:43.801Z,0.52
2017-01-05T06:23:43.682Z,0.64
2017-01-05T06:24:43.691Z,0.59
2017-01-05T06:25:43.801Z,0.62
2017-01-05T06:26:43.792Z,0.51
2017-01-05T06:27:43.710Z,0.52
2017-01-05T06:28:43.921Z,0.49
2017-01-05T06:29:43.779Z,0.49
2017-01-05T06:30:43.810Z,0.49
2017-01-05T06:31:43.869Z,0.45
2017-01-05T06:32:43.792Z,0.35
2017-01-05T06:33:43.899Z,0.48
2017-01-05T06:34:43.851Z,0.41
2017-01-05T06:35:43.840Z,0.45
2017-01-05T06:36:43.837Z,0.44
2017-01-05T06:37:43.748Z,0.4
2017-01-05T06:38:43.729Z,0.34
2017-01-05T06:39:43.859Z,0.35
2017-01-05T06:40:43.840Z,0.44
2017-01-05T06:41:43.798Z,0.43
2017-01-05T06:42:43.919Z,0.33
2017-01-05T06:43:43.940Z,0.43
2017-01-05T06:44:43.872Z,0.26
2017-01-05T06:45:43.776Z,0.31
2017-01-05T06:46:43.758Z,0.37
2017-01-05T06:47:43.927Z,0.37
2017-01-05T06:48:43.777Z,0.28
2017-01-05T06:49:43.880Z,0.2
2017-01-05T06:50:43.789Z,0.2
2017-01-05T06:51:43.820Z,0.22
2017-01-05T06:52:43.914Z,0.28
2017-01-05T06:53:44.383Z,0.31
2017-01-05T06:54:43.801Z,0.26
2017-01-05T06:55:43.806Z,0.33
2017-01-05T06:56:43.801Z,0.23
2017-01-05T06:57:43.847Z,0.22
2017-01-05T06:58:43.857Z,0.2
2017-01-05T06:59:43.951Z,0.2
2017-01-05T07:00:43.914Z,0.22
2017-01-05T07:01:43.827Z,0.17
2017-01-05T07:02:43.803Z,0.28
2017-01-05T07:03:44.554Z,0.26
2017-01-05T07:04:43.805Z,0.16
2017-01-05T07:05:43.866Z,0.19
2017-01-05T07:06:43.783Z,0.26
2017-01-05T07:07:43.893Z,0.22
2017-01-05T07:08:43.972Z,0.1
2017-01-05T07:09:44.441Z,0.23
2017-01-05T07:10:43.882Z,0.17
2017-01-05T07:11:43.857Z,0.08
2017-01-05T07:12:44.418Z,0.13
2017-01-05T07:13:43.998Z,0.13
2017-01-05T07:14:44.035Z,0.15
2017-01-05T07:15:43.782Z,0.13
2017-01-05T07:16:43.804Z,0.15
2017-01-05T07:17:43.877Z,0.15
2017-01-05T07:18:43.822Z,0.19
2017-01-05T07:19:43.937Z,0.13
2017-01-05T07:20:43.817Z,0.15
2017-01-05T07:21:43.826Z,0.17
2017-01-05T07:22:43.845Z,0.07
2017-01-05T07:23:43.824Z,0.17
2017-01-05T07:24:43.925Z,0.16
2017-01-05T07:25:43.790Z,0.1
2017-01-05T07:26:43.866Z,0.16
2017-01-05T07:27:43.825Z,0.04
2017-01-05T07:28:43.934Z,0.16
2017-01-05T07:29:43.825Z,0.16
2017-01-05T07:30:43.934Z,0.05
2017-01-05T07:31:44.019Z,0.1
2017-01-05T07:32:43.841Z,0.05
2017-01-05T07:33:43.880Z,0.1
2017-01-05T07:34:43.966Z,0.04
2017-01-05T07:35:43.959Z,0.04
2017-01-05T07:36:43.765Z,0.19
2017-01-05T07:37:43.951Z,-0.02
2017-01-05T07:38:43.884Z,0.01
2017-01-05T07:39:43.949Z,0.02
2017-01-05T07:40:43.825Z,0.02
2017-01-05T07:41:43.814Z,-0.02
2017-01-05T07:42:43.999Z,0.13
2017-01-05T07:43:43.882Z,0.05
2017-01-05T07:44:44.405Z,-0.06
2017-01-05T07:45:43.932Z,0.01
2017-01-05T07:46:43.885Z,0.04
2017-01-05T07:47:43.953Z,-0.03
2017-01-05T07:48:43.944Z,-0.02
2017-01-05T07:49:43.954Z,0.04
2017-01-05T07:50:43.875Z,0.01
2017-01-05T07:51:43.887Z,0.08
2017-01-05T07:52:43.865Z,-0.02
2017-01-05T07:53:43.937Z,0.1
2017-01-05T07:54:43.955Z,0.07
2017-01-05T07:55:44.043Z,0.02
2017-01-05T07:56:43.961Z,0.05
2017-01-05T07:57:43.903Z,0.16
2017-01-05T07:58:43.964Z,0.15
2017-01-05T07:59:43.961Z,0.04
2017-01-05T08:00:43.904Z,0.13
2017-01-05T08:01:43.975Z,0.07
2017-01-05T08:02:43.853Z,0.08
2017-01-05T08:03:47.025Z,0.19
2017-01-05T08:04:43.904Z,0.16
2017-01-05T08:05:44.484Z,0.17
2017-01-05T08:06:44.034Z,0.12
2017-01-05T08:07:43.991Z,0.04
2017-01-05T08:08:43.973Z,0.07
2017-01-05T08:09:43.913Z,0.12
2017-01-05T08:10:43.917Z,0.16
2017-01-05T08:11:43.963Z,0.1
2017-01-05T08:12:43.994Z,0.1
2017-01-05T08:13:44.033Z,0.15
2017-01-05T08:14:43.977Z,0.07
2017-01-05T08:15:44.004Z,0.16
2017-01-05T08:16:43.852Z,0.12
2017-01-05T08:17:44.457Z,0.15
2017-01-05T08:18:45.474Z,0.22
2017-01-05T08:19:43.995Z,0.25
2017-01-05T08:20:43.894Z,0.25
2017-01-05T08:21:43.935Z,0.28
2017-01-05T08:22:43.979Z,0.17
2017-01-05T08:23:44.013Z,0.3
2017-01-05T08:24:43.945Z,0.23
2017-01-05T08:25:44.192Z,0.35
2017-01-05T08:26:43.973Z,0.31
2017-01-05T08:27:44.044Z,0.45
2017-01-05T08:28:43.915Z,0.4
2017-01-05T08:29:44.035Z,0.45
2017-01-05T08:30:43.893Z,0.44
2017-01-05T08:31:43.895Z,0.56
2017-01-05T08:32:43.994Z,0.56
2017-01-05T08:33:44.073Z,0.6
2017-01-05T08:34:43.880Z,0.57
2017-01-05T08:35:44.025Z,0.49
2017-01-05T08:36:44.053Z,0.45
2017-01-05T08:37:43.952Z,0.7
2017-01-05T08:38:43.890Z,0.64
2017-01-05T08:39:43.942Z,0.7
2017-01-05T08:40:43.894Z,0.68
2017-01-05T08:41:44.023Z,0.75
2017-01-05T08:42:44.026Z,0.8
2017-01-05T08:43:44.580Z,0.82
2017-01-05T08:44:43.982Z,0.82
2017-01-05T08:45:43.964Z,0.88
2017-01-05T08:46:43.933Z,0.92
2017-01-05T08:47:43.953Z,0.92
2017-01-05T08:48:44.065Z,0.9
2017-01-05T08:49:44.080Z,0.99
2017-01-05T08:50:43.969Z,0.99
2017-01-05T08:51:44.123Z,1.06
2017-01-05T08:52:44.040Z,1.08
2017-01-05T08:53:44.025Z,1.13
2017-01-05T08:54:43.928Z,1.1
2017-01-05T08:55:44.032Z,1.06
2017-01-05T08:56:44.003Z,1.17
2017-01-05T08:57:44.112Z,1.24
2017-01-05T08:58:45.971Z,1.25
2017-01-05T08:59:43.973Z,1.34
2017-01-05T09:00:44.022Z,1.38
2017-01-05T09:01:44.051Z,1.36
2017-01-05T09:02:44.052Z,1.42
2017-01-05T09:03:44.024Z,1.43
2017-01-05T09:04:44.026Z,1.52
2017-01-05T09:05:44.039Z,1.54
2017-01-05T09:06:43.981Z,1.5
2017-01-05T09:07:44.094Z,1.5
2017-01-05T09:08:44.013Z,1.74
2017-01-05T09:09:43.983Z,1.63
2017-01-05T09:10:44.009Z,1.79
2017-01-05T09:11:43.931Z,1.79
2017-01-05T09:12:44.001Z,1.85
2017-01-05T09:13:44.043Z,2.01
2017-01-05T09:14:43.992Z,1.98
2017-01-05T09:15:43.985Z,2.01
2017-01-05T09:16:43.950Z,2.01
2017-01-05T09:17:44.001Z,2.01
2017-01-05T09:18:44.184Z,2.12
2017-01-05T09:19:44.207Z,2.14
2017-01-05T09:20:44.063Z,2.2
2017-01-05T09:21:44.095Z,2.15
2017-01-05T09:22:44.010Z,2.18
2017-01-05T09:23:43.991Z,2.23
2017-01-05T09:24:44.057Z,2.25
2017-01-05T09:25:44.092Z,2.29
2017-01-05T09:26:44.050Z,2.25
2017-01-05T09:27:44.106Z,2.26
2017-01-05T09:28:44.043Z,2.36
2017-01-05T09:29:44.570Z,2.33
2017-01-05T09:30:45.511Z,2.4
2017-01-05T09:31:44.063Z,2.33
2017-01-05T09:32:44.040Z,2.47
2017-01-05T09:33:44.101Z,2.45
2017-01-05T09:34:44.151Z,2.59
2017-01-05T09:35:44.061Z,2.55
2017-01-05T09:36:43.992Z,2.73
2017-01-05T09:37:44.070Z,2.73
2017-01-05T09:38:44.070Z,2.8
2017-01-05T09:39:44.321Z,2.84
2017-01-05T09:40:44.094Z,2.83
2017-01-05T09:41:44.061Z,2.8
2017-01-05T09:42:44.164Z,2.97
2017-01-05T09:43:44.023Z,2.97
2017-01-05T09:44:44.131Z,3.05
2017-01-05T09:45:44.214Z,3.22
2017-01-05T09:46:44.081Z,3.13
2017-01-05T09:47:44.348Z,3.26
2017-01-05T09:48:44.158Z,3.34
2017-01-05T09:49:44.049Z,3.46
2017-01-05T09:50:44.059Z,3.49
2017-01-05T09:51:44.011Z,3.74
2017-01-05T09:52:44.106Z,4.14
2017-01-05T09:53:44.090Z,4.49
2017-01-05T09:54:44.131Z,4.65
2017-01-05T09:55:44.103Z,4.96
2017-01-05T09:56:44.159Z,5.15
2017-01-05T09:57:44.089Z,5.29
2017-01-05T09:58:44.026Z,5.42
2017-01-05T09:59:44.084Z,5.74
2017-01-05T10:00:44.147Z,5.85
2017-01-05T10:01:44.150Z,5.98
2017-01-05T10:02:44.068Z,5.98
2017-01-05T10:03:44.039Z,6.19
2017-01-05T10:04:44.167Z,6.27
2017-01-05T10:05:44.034Z,6.3
2017-01-05T10:06:44.179Z,6.42
2017-01-05T10:07:44.309Z,6.53
2017-01-05T10:08:44.130Z,6.45
2017-01-05T10:09:44.303Z,6.63
2017-01-05T10:10:44.156Z,6.6
2017-01-05T10:11:44.028Z,6.91
2017-01-05T10:12:44.129Z,7.07
2017-01-05T10:13:44.178Z,6.91
2017-01-05T10:14:44.169Z,7.04
2017-01-05T10:15:44.334Z,6.99
2017-01-05T10:16:44.058Z,6.82
2017-01-05T10:17:44.077Z,6.78
2017-01-05T10:18:44.331Z,6.48
2017-01-05T10:19:44.006Z,6.11
2017-01-05T10:20:44.099Z,5.98
2017-01-05T10:21:44.276Z,5.65
2017-01-05T10:22:44.112Z,5.47
2017-01-05T10:23:44.419Z,5.49
2017-01-05T10:24:44.155Z,5.44
2017-01-05T10:25:44.251Z,5.24
2017-01-05T10:26:44.996Z,5.24
2017-01-05T10:27:44.347Z,5.11
2017-01-05T10:28:44.101Z,4.96
2017-01-05T10:29:44.217Z,4.8
2017-01-05T10:30:44.178Z,4.69
2017-01-05T10:31:44.370Z,4.8
2017-01-05T10:32:44.129Z,4.88
2017-01-05T10:33:44.055Z,4.83
2017-01-05T10:34:44.107Z,4.8
2017-01-05T10:35:44.225Z,4.65
2017-01-05T10:36:44.130Z,4.47
2017-01-05T10:37:44.237Z,4.43
2017-01-05T10:38:44.196Z,4.35
2017-01-05T10:39:44.108Z,4.28
2017-01-05T10:40:44.075Z,4.35
2017-01-05T10:41:44.046Z,4.26
2017-01-05T10:42:44.135Z,4.25
2017-01-05T10:43:44.352Z,4.25
2017-01-05T10:44:44.139Z,4.25
2017-01-05T10:45:44.108Z,4.2
2017-01-05T10:46:44.185Z,4.24
2017-01-05T10:47:44.128Z,4.18
2017-01-05T10:48:44.171Z,4.25
2017-01-05T10:49:44.216Z,4.24
2017-01-05T10:50:44.314Z,4.25
2017-01-05T10:51:44.209Z,4.32
2017-01-05T10:52:44.108Z,4.39
2017-01-05T10:53:44.131Z,4.46
2017-01-05T10:54:44.145Z,4.32
2017-01-05T10:55:44.084Z,4.21
2017-01-05T10:56:44.095Z,4.21
2017-01-05T10:57:44.166Z,4.1
2017-01-05T10:58:44.095Z,4.1
2017-01-05T10:59:44.105Z,4.26
2017-01-05T11:00:44.251Z,4.36
2017-01-05T11:01:44.162Z,4.38
2017-01-05T11:02:44.137Z,4.18
2017-01-05T11:03:47.159Z,4.24
2017-01-05T11:04:44.206Z,4.25
2017-01-05T11:05:44.244Z,4.29
2017-01-05T11:06:44.125Z,4.16
2017-01-05T11:07:44.278Z,4.06
2017-01-05T11:08:44.074Z,4
2017-01-05T11:09:44.085Z,3.98
2017-01-05T11:10:44.144Z,3.95
2017-01-05T11:11:44.214Z,4
2017-01-05T11:12:44.183Z,3.89
2017-01-05T11:13:44.143Z,3.88
2017-01-05T11:14:44.105Z,3.95
2017-01-05T11:15:44.223Z,3.96
2017-01-05T11:16:44.031Z,3.95
2017-01-05T11:17:44.133Z,3.9
2017-01-05T11:18:44.144Z,4
2017-01-05T11:19:44.146Z,4.02
2017-01-05T11:20:44.144Z,4.13
2017-01-05T11:21:44.110Z,4.31
2017-01-05T11:22:44.109Z,4.25
2017-01-05T11:23:44.151Z,4.06
2017-01-05T11:24:44.141Z,4.02
2017-01-05T11:25:44.269Z,4.5
2017-01-05T11:26:44.142Z,4.67
2017-01-05T11:27:44.108Z,4.88
2017-01-05T11:28:44.847Z,4.8
2017-01-05T11:29:44.148Z,5.01
2017-01-05T11:30:44.173Z,4.86
2017-01-05T11:31:44.198Z,4.87
2017-01-05T11:32:44.253Z,5.09
2017-01-05T11:33:44.389Z,5.15
2017-01-05T11:34:44.178Z,5.09
2017-01-05T11:35:44.465Z,5.35
2017-01-05T11:36:44.249Z,5.2
2017-01-05T11:37:44.384Z,5.37
2017-01-05T11:38:44.121Z,5.38
2017-01-05T11:39:44.401Z,5.42
2017-01-05T11:40:44.215Z,5.32
2017-01-05T11:41:44.326Z,5.47
2017-01-05T11:42:44.212Z,5.47
2017-01-05T11:43:44.313Z,5.45
2017-01-05T11:44:44.141Z,5.49
2017-01-05T11:45:44.186Z,5.47
2017-01-05T11:46:44.291Z,5.47
2017-01-05T11:47:44.306Z,5.48
2017-01-05T11:48:44.188Z,5.45
2017-01-05T11:49:44.649Z,5.56
2017-01-05T11:50:44.188Z,5.42
2017-01-05T11:51:44.430Z,5.62
2017-01-05T11:52:44.271Z,5.58
2017-01-05T11:53:44.286Z,5.51
2017-01-05T11:54:44.111Z,5.47
2017-01-05T11:55:44.354Z,5.49
2017-01-05T11:56:44.197Z,5.44
2017-01-05T11:57:44.429Z,5.42
2017-01-05T11:58:44.238Z,5.41
2017-01-05T11:59:44.391Z,5.44
2017-01-05T12:00:44.178Z,5.41
2017-01-05T12:01:44.162Z,5.44
2017-01-05T12:02:44.314Z,5.4
2017-01-05T12:03:44.480Z,5.52
2017-01-05T12:04:44.217Z,5.52
2017-01-05T12:05:44.454Z,5.51
2017-01-05T12:06:44.258Z,5.49
2017-01-05T12:07:44.769Z,5.66
2017-01-05T12:08:44.198Z,5.65
2017-01-05T12:09:44.524Z,5.63
2017-01-05T12:10:44.171Z,5.77
2017-01-05T12:11:44.441Z,5.81
2017-01-05T12:12:44.267Z,5.83
2017-01-05T12:13:44.271Z,5.88
2017-01-05T12:14:44.278Z,5.95
2017-01-05T12:15:44.199Z,6.02
2017-01-05T12:16:44.260Z,5.99
2017-01-05T12:17:44.328Z,5.98
2017-01-05T12:18:44.285Z,6.01
2017-01-05T12:19:44.490Z,6.03
2017-01-05T12:20:44.279Z,5.95
2017-01-05T12:21:44.303Z,6.02
2017-01-05T12:22:44.258Z,6.01
2017-01-05T12:23:44.387Z,5.92
2017-01-05T12:24:44.284Z,6.01
2017-01-05T12:25:44.391Z,5.9
2017-01-05T12:26:44.304Z,5.8
2017-01-05T12:27:44.525Z,5.8
2017-01-05T12:28:44.197Z,5.78
2017-01-05T12:29:44.446Z,5.87
2017-01-05T12:30:44.360Z,5.84
2017-01-05T12:31:44.286Z,5.78
2017-01-05T12:32:44.409Z,5.8
2017-01-05T12:33:44.373Z,5.63
2017-01-05T12:34:44.281Z,5.75
2017-01-05T12:35:44.959Z,5.66
2017-01-05T12:36:44.268Z,5.73
2017-01-05T12:37:44.432Z,5.78
2017-01-05T12:38:44.329Z,5.69
2017-01-05T12:39:44.299Z,5.67
2017-01-05T12:40:44.275Z,5.7
2017-01-05T12:41:44.307Z,5.73
2017-01-05T12:42:44.286Z,5.74
2017-01-05T12:43:44.356Z,5.8
2017-01-05T12:44:44.277Z,5.8
2017-01-05T12:45:44.348Z,5.73
2017-01-05T12:46:44.379Z,5.83
2017-01-05T12:47:44.409Z,5.87
2017-01-05T12:48:44.335Z,5.84
2017-01-05T12:49:44.509Z,5.92
2017-01-05T12:50:44.236Z,5.88
2017-01-05T12:51:44.257Z,5.84
2017-01-05T12:52:44.405Z,5.81
2017-01-05T12:53:44.526Z,5.83
2017-01-05T12:54:44.285Z,5.8
2017-01-05T12:55:44.337Z,5.96
2017-01-05T12:56:44.255Z,6.05
2017-01-05T12:57:44.453Z,6.14
2017-01-05T12:58:44.340Z,6.11
2017-01-05T12:59:44.220Z,6.2
2017-01-05T13:00:44.345Z,6.32
2017-01-05T13:01:45.926Z,6.36
2017-01-05T13:02:44.384Z,6.4
2017-01-05T13:03:44.466Z,6.46
2017-01-05T13:04:44.269Z,6.54
2017-01-05T13:05:44.503Z,6.58
2017-01-05T13:06:44.259Z,6.65
2017-01-05T13:07:44.431Z,6.63
2017-01-05T13:08:44.283Z,6.55
2017-01-05T13:09:44.376Z,6.69
2017-01-05T13:10:44.417Z,6.64
2017-01-05T13:11:44.416Z,6.69
2017-01-05T13:12:44.304Z,6.54
2017-01-05T13:13:44.368Z,6.6
2017-01-05T13:14:44.289Z,6.57
2017-01-05T13:15:44.602Z,6.64
2017-01-05T13:16:44.285Z,6.68
2017-01-05T13:17:44.389Z,6.73
2017-01-05T13:18:44.272Z,6.75
2017-01-05T13:19:44.441Z,6.63
2017-01-05T13:20:44.377Z,6.68
2017-01-05T13:21:44.364Z,6.6
2017-01-05T13:22:44.305Z,6.53
2017-01-05T13:23:44.439Z,6.46
2017-01-05T13:24:44.412Z,6.25
2017-01-05T13:25:44.457Z,6.46